createdAt,value
2023-03-18T00:00:16.796Z,58.61
2023-03-18T00:02:43.820Z,58.50
2023-03-18T00:05:12.883Z,58.51
2023-03-18T00:07:40.482Z,58.51
2023-03-18T00:10:10.189Z,58.67
2023-03-18T00:12:38.999Z,58.60
2023-03-18T00:15:11.852Z,58.59
2023-03-18T00:17:40.317Z,58.66
2023-03-18T00:20:08.617Z,58.78
2023-03-18T00:22:37.432Z,58.77
2023-03-18T00:25:06.124Z,58.75
2023-03-18T00:27:34.918Z,58.73
2023-03-18T00:30:02.416Z,58.92
2023-03-18T00:32:29.311Z,59.04
2023-03-18T00:34:57.064Z,58.79
2023-03-18T00:37:31.507Z,58.87
2023-03-18T00:40:06.526Z,58.93
2023-03-18T00:42:47.598Z,59.09
2023-03-18T00:45:17.254Z,59.01
2023-03-18T00:47:44.390Z,58.90
2023-03-18T00:50:12.566Z,59.13
2023-03-18T00:52:39.716Z,59.13
2023-03-18T00:55:07.544Z,58.97
2023-03-18T00:57:34.835Z,59.27
2023-03-18T01:00:02.717Z,59.17
2023-03-18T01:02:30.733Z,59.25
2023-03-18T01:04:58.101Z,59.06
2023-03-18T01:07:25.362Z,59.11
2023-03-18T01:09:52.355Z,59.26
2023-03-18T01:12:19.160Z,59.24
2023-03-18T01:14:45.955Z,59.14
2023-03-18T01:17:12.895Z,59.23
2023-03-18T01:19:39.730Z,59.27
2023-03-18T01:22:07.666Z,59.22
2023-03-18T01:24:41.321Z,59.17
2023-03-18T01:27:09.114Z,59.36
2023-03-18T01:29:37.825Z,59.31
2023-03-18T01:32:09.885Z,59.28
2023-03-18T01:34:36.776Z,59.16
2023-03-18T01:37:03.674Z,59.39
2023-03-18T01:39:34.454Z,59.36
2023-03-18T01:42:01.757Z,59.10
2023-03-18T01:44:31.674Z,59.39
2023-03-18T01:46:59.777Z,59.25
2023-03-18T01:49:49.725Z,59.51
2023-03-18T01:52:20.672Z,59.35
2023-03-18T01:55:00.529Z,59.42
2023-03-18T01:57:29.120Z,59.37
2023-03-18T01:59:58.086Z,59.49
2023-03-18T02:02:26.296Z,59.55
2023-03-18T02:04:56.605Z,59.72
2023-03-18T02:07:26.608Z,59.79
2023-03-18T02:09:56.945Z,59.81
2023-03-18T02:12:28.609Z,59.63
2023-03-18T02:15:01.344Z,59.85
2023-03-18T02:17:36.004Z,59.69
2023-03-18T02:20:28.050Z,59.58
2023-03-18T02:23:17.419Z,59.83
2023-03-18T02:25:53.384Z,59.71
2023-03-18T02:28:25.555Z,59.86
2023-03-18T02:30:57.053Z,59.77
2023-03-18T02:33:30.061Z,59.79
2023-03-18T02:36:03.438Z,59.96
2023-03-18T02:38:32.853Z,60.06
2023-03-18T02:41:01.645Z,60.10
2023-03-18T02:43:38.185Z,59.95
2023-03-18T02:46:35.574Z,60.21
2023-03-18T02:49:05.183Z,60.15
2023-03-18T02:51:33.017Z,60.20
2023-03-18T02:54:10.323Z,60.11
2023-03-18T02:56:38.693Z,60.18
2023-03-18T02:59:05.885Z,60.29
2023-03-18T03:01:34.547Z,60.36
2023-03-18T03:04:02.831Z,60.25
2023-03-18T03:06:29.907Z,60.32
2023-03-18T03:08:57.535Z,60.29
2023-03-18T03:11:25.358Z,60.21
2023-03-18T03:13:55.842Z,60.51
2023-03-18T03:16:22.826Z,60.53
2023-03-18T03:18:49.758Z,60.55
2023-03-18T03:21:17.186Z,60.42
2023-03-18T03:23:46.581Z,60.29
2023-03-18T03:26:16.009Z,60.46
2023-03-18T03:28:43.440Z,60.61
2023-03-18T03:31:10.972Z,60.40
2023-03-18T03:33:41.566Z,60.77
2023-03-18T03:36:10.954Z,60.80
2023-03-18T03:38:38.094Z,60.74
2023-03-18T03:41:05.849Z,60.76
2023-03-18T03:43:34.091Z,60.92
2023-03-18T03:46:01.272Z,60.77
2023-03-18T03:48:28.190Z,60.94
2023-03-18T03:50:55.973Z,60.94
2023-03-18T03:53:25.128Z,60.98
2023-03-18T03:55:53.008Z,60.92
2023-03-18T03:58:20.159Z,60.97
2023-03-18T04:00:48.060Z,61.05
2023-03-18T04:03:15.004Z,61.03
2023-03-18T04:05:43.388Z,60.99
2023-03-18T04:08:10.717Z,61.25
2023-03-18T04:10:39.421Z,61.32
2023-03-18T04:13:10.356Z,61.16
2023-03-18T04:15:39.345Z,61.34
2023-03-18T04:18:13.384Z,61.09
2023-03-18T04:20:41.206Z,61.23
2023-03-18T04:23:25.891Z,61.30
2023-03-18T04:25:52.761Z,61.45
2023-03-18T04:28:19.780Z,61.35
2023-03-18T04:30:48.510Z,61.22
2023-03-18T04:33:18.008Z,61.22
2023-03-18T04:35:45.655Z,61.43
2023-03-18T04:38:14.777Z,61.34
2023-03-18T04:40:43.032Z,61.31
2023-03-18T04:43:10.161Z,61.30
2023-03-18T04:45:37.298Z,61.06
2023-03-18T04:48:04.441Z,61.09
2023-03-18T04:50:36.609Z,61.13
2023-03-18T04:53:06.728Z,61.17
2023-03-18T04:55:34.191Z,61.21
2023-03-18T04:58:03.782Z,61.23
2023-03-18T05:00:36.899Z,61.43
2023-03-18T05:03:16.071Z,61.32
2023-03-18T05:05:44.172Z,61.17
2023-03-18T05:08:13.339Z,61.38
2023-03-18T05:10:41.537Z,61.29
2023-03-18T05:13:11.694Z,61.12
2023-03-18T05:15:38.585Z,61.26
2023-03-18T05:18:05.781Z,61.12
2023-03-18T05:20:33.191Z,61.50
2023-03-18T05:23:00.703Z,61.39
2023-03-18T05:25:41.718Z,61.34
2023-03-18T05:28:11.255Z,61.33
2023-03-18T05:30:47.563Z,61.30
2023-03-18T05:33:17.067Z,61.27
2023-03-18T05:35:52.230Z,61.16
2023-03-18T05:38:23.090Z,61.09
2023-03-18T05:40:50.551Z,61.19
2023-03-18T05:43:22.257Z,61.48
2023-03-18T05:45:53.397Z,61.61
2023-03-18T05:48:27.176Z,61.50
2023-03-18T05:50:58.927Z,61.46
2023-03-18T05:53:28.971Z,61.54
2023-03-18T05:56:05.904Z,61.36
2023-03-18T05:58:34.541Z,61.61
2023-03-18T06:01:20.397Z,61.63
2023-03-18T06:03:47.768Z,61.66
2023-03-18T06:06:14.620Z,61.45
2023-03-18T06:08:41.654Z,61.82
2023-03-18T06:11:09.227Z,61.70
2023-03-18T06:13:36.036Z,61.88
2023-03-18T06:16:04.050Z,61.99
2023-03-18T06:18:31.428Z,61.96
2023-03-18T06:20:58.287Z,62.08
2023-03-18T06:23:28.050Z,62.01
2023-03-18T06:25:56.220Z,62.22
2023-03-18T06:28:29.616Z,62.23
2023-03-18T06:31:00.226Z,62.02
2023-03-18T06:33:28.487Z,62.11
2023-03-18T06:35:56.336Z,62.05
2023-03-18T06:38:23.240Z,62.17
2023-03-18T06:40:51.493Z,62.06
2023-03-18T06:43:18.806Z,62.19
2023-03-18T06:45:46.509Z,61.97
2023-03-18T06:48:14.187Z,62.09
2023-03-18T06:50:44.205Z,62.17
2023-03-18T06:53:18.769Z,62.17
2023-03-18T06:55:47.394Z,62.22
2023-03-18T06:58:17.540Z,62.20
2023-03-18T07:00:52.165Z,62.26
2023-03-18T07:03:26.289Z,62.33
2023-03-18T07:05:54.507Z,62.51
2023-03-18T07:08:21.490Z,62.25
2023-03-18T07:10:52.869Z,62.53
2023-03-18T07:13:20.613Z,62.56
2023-03-18T07:15:48.155Z,62.47
2023-03-18T07:18:15.051Z,62.81
2023-03-18T07:20:42.198Z,62.51
2023-03-18T07:23:10.049Z,62.90
2023-03-18T07:25:37.180Z,62.82
2023-03-18T07:28:05.885Z,62.79
2023-03-18T07:30:34.129Z,62.86
2023-03-18T07:33:01.170Z,62.90
2023-03-18T07:35:28.903Z,62.83
2023-03-18T07:37:55.965Z,62.74
2023-03-18T07:40:23.637Z,62.76
2023-03-18T07:42:51.830Z,62.64
2023-03-18T07:45:18.653Z,62.38
2023-03-18T07:47:47.219Z,62.19
2023-03-18T07:50:14.219Z,62.22
2023-03-18T07:52:41.040Z,61.86
2023-03-18T07:55:09.292Z,61.57
2023-03-18T07:57:36.791Z,61.52
2023-03-18T08:00:06.368Z,61.34
2023-03-18T08:02:40.382Z,61.35
2023-03-18T08:05:07.596Z,61.09
2023-03-18T08:07:35.728Z,61.04
2023-03-18T08:10:03.022Z,61.12
2023-03-18T08:12:38.473Z,61.01
2023-03-18T08:15:16.353Z,61.07
2023-03-18T08:17:43.136Z,60.79
2023-03-18T08:20:10.630Z,60.51
2023-03-18T08:22:38.010Z,60.15
2023-03-18T08:25:05.220Z,60.24
2023-03-18T08:27:32.093Z,59.90
2023-03-18T08:29:58.928Z,59.84
2023-03-18T08:32:25.965Z,59.89
2023-03-18T08:34:52.768Z,59.57
2023-03-18T08:37:19.646Z,59.55
2023-03-18T08:39:46.428Z,58.54
2023-03-18T08:42:13.556Z,58.75
2023-03-18T08:44:40.496Z,58.55
2023-03-18T08:47:08.343Z,58.50
2023-03-18T08:49:35.739Z,58.22
2023-03-18T08:52:03.578Z,58.37
2023-03-18T08:54:30.378Z,58.73
2023-03-18T08:56:57.328Z,58.50
2023-03-18T08:59:24.202Z,57.59
2023-03-18T09:01:50.983Z,57.59
2023-03-18T09:04:17.842Z,57.22
2023-03-18T09:06:44.728Z,56.87
2023-03-18T09:09:11.958Z,57.38
2023-03-18T09:11:39.986Z,56.99
2023-03-18T09:14:07.096Z,56.89
2023-03-18T09:16:35.939Z,56.68
2023-03-18T09:19:02.749Z,56.73
2023-03-18T09:21:29.605Z,56.30
2023-03-18T09:23:56.973Z,56.81
2023-03-18T09:26:24.236Z,57.05
2023-03-18T09:28:51.028Z,56.24
2023-03-18T09:31:18.992Z,56.00
2023-03-18T09:33:47.188Z,56.63
2023-03-18T09:36:14.874Z,56.66
2023-03-18T09:38:42.637Z,56.86
2023-03-18T09:41:48.421Z,55.39
2023-03-18T09:44:30.284Z,55.38
2023-03-18T09:47:26.724Z,54.79
2023-03-18T09:50:21.234Z,54.48
2023-03-18T09:52:54.307Z,54.15
2023-03-18T09:55:40.304Z,54.40
2023-03-18T09:58:33.644Z,54.42
2023-03-18T10:01:03.163Z,54.38
2023-03-18T10:03:37.702Z,54.67
2023-03-18T10:06:18.317Z,54.87
2023-03-18T10:08:58.635Z,54.73
2023-03-18T10:11:48.461Z,54.44
2023-03-18T10:14:29.632Z,54.48
2023-03-18T10:17:26.170Z,54.53
2023-03-18T10:19:59.378Z,54.42
2023-03-18T10:22:51.417Z,55.45
2023-03-18T10:25:24.667Z,55.95
2023-03-18T10:28:17.314Z,56.86
2023-03-18T10:31:04.617Z,57.13
2023-03-18T10:33:48.293Z,57.68
2023-03-18T10:36:19.639Z,57.27
2023-03-18T10:38:55.256Z,56.75
2023-03-18T10:41:28.729Z,54.02
2023-03-18T10:43:56.985Z,56.79
2023-03-18T10:46:26.013Z,57.13
2023-03-18T10:49:01.015Z,56.98
2023-03-18T10:51:45.586Z,56.34
2023-03-18T10:54:24.034Z,54.78
2023-03-18T10:56:52.884Z,54.92
2023-03-18T10:59:22.132Z,53.82
2023-03-18T11:01:59.147Z,52.77
2023-03-18T11:04:28.613Z,53.10
2023-03-18T11:07:00.838Z,52.29
2023-03-18T11:09:36.541Z,53.03
2023-03-18T11:12:15.840Z,51.77
2023-03-18T11:14:49.618Z,50.15
2023-03-18T11:17:23.530Z,50.51
2023-03-18T11:20:01.007Z,50.95
2023-03-18T11:22:30.062Z,48.71
2023-03-18T11:25:11.748Z,48.12
2023-03-18T11:27:48.461Z,48.28
2023-03-18T11:30:33.133Z,48.97
2023-03-18T11:33:10.709Z,48.71
2023-03-18T11:36:04.870Z,47.63
2023-03-18T11:38:36.973Z,47.30
2023-03-18T11:41:25.251Z,47.87
2023-03-18T11:44:06.859Z,47.76
2023-03-18T11:46:47.915Z,47.75
2023-03-18T11:49:18.359Z,48.32
2023-03-18T11:52:12.074Z,45.97
2023-03-18T11:54:49.389Z,45.26
2023-03-18T11:57:24.821Z,43.05
2023-03-18T12:00:07.339Z,43.60
2023-03-18T12:03:20.337Z,42.77
2023-03-18T12:06:16.797Z,42.16
2023-03-18T12:09:25.215Z,41.82
2023-03-18T12:12:08.606Z,42.34
2023-03-18T12:14:52.112Z,42.24
2023-03-18T12:17:36.818Z,41.53
2023-03-18T12:20:22.716Z,41.63
2023-03-18T12:23:03.536Z,41.68
2023-03-18T12:25:43.327Z,41.52
2023-03-18T12:28:16.866Z,41.50
2023-03-18T12:31:30.164Z,41.93
2023-03-18T12:34:01.641Z,40.99
2023-03-18T12:36:35.950Z,40.47
2023-03-18T12:39:28.845Z,39.79
2023-03-18T12:42:10.926Z,39.93
2023-03-18T12:45:14.833Z,40.42
2023-03-18T12:47:48.889Z,40.02
2023-03-18T12:50:22.824Z,40.27
2023-03-18T12:52:59.608Z,40.04
2023-03-18T12:55:48.367Z,39.71
2023-03-18T12:58:28.269Z,40.08
2023-03-18T13:01:08.033Z,40.39
2023-03-18T13:03:39.059Z,39.63
2023-03-18T13:06:31.198Z,39.82
2023-03-18T13:09:13.687Z,39.24
2023-03-18T13:11:55.731Z,39.04
2023-03-18T13:14:30.074Z,38.52
2023-03-18T13:17:03.344Z,38.58
2023-03-18T13:19:31.202Z,40.45
2023-03-18T13:22:36.907Z,40.22
2023-03-18T13:25:18.045Z,38.31
2023-03-18T13:28:02.307Z,38.80
2023-03-18T13:30:56.516Z,38.63
2023-03-18T13:33:27.296Z,39.45
2023-03-18T13:36:06.734Z,38.03
2023-03-18T13:38:36.837Z,38.87
2023-03-18T13:41:19.037Z,38.92
2023-03-18T13:43:49.675Z,38.20
2023-03-18T13:46:23.239Z,37.96
2023-03-18T13:48:56.497Z,38.01
2023-03-18T13:51:23.735Z,38.30
2023-03-18T13:53:55.457Z,37.72
2023-03-18T13:56:43.851Z,37.86
2023-03-18T13:59:35.736Z,38.37
2023-03-18T14:02:22.452Z,39.40
2023-03-18T14:04:51.576Z,38.69
2023-03-18T14:07:20.580Z,39.00
2023-03-18T14:09:47.840Z,39.37
2023-03-18T14:12:20.888Z,39.69
2023-03-18T14:14:51.550Z,38.28
2023-03-18T14:17:25.769Z,36.91
2023-03-18T14:19:54.955Z,37.06
2023-03-18T14:22:28.618Z,36.33
2023-03-18T14:25:28.198Z,39.09
2023-03-18T14:28:01.222Z,38.71
2023-03-18T14:30:32.301Z,38.15
2023-03-18T14:33:01.400Z,36.14
2023-03-18T14:35:33.804Z,36.11
2023-03-18T14:38:03.922Z,35.72
2023-03-18T14:40:46.457Z,36.12
2023-03-18T14:43:22.500Z,36.96
2023-03-18T14:45:51.071Z,37.05
2023-03-18T14:48:21.765Z,37.46
2023-03-18T14:50:55.096Z,37.80
2023-03-18T14:53:33.444Z,37.83
2023-03-18T14:56:03.984Z,38.30
2023-03-18T14:58:33.613Z,38.30
2023-03-18T15:01:07.544Z,38.64
2023-03-18T15:03:34.600Z,39.06
2023-03-18T15:06:03.883Z,39.15
2023-03-18T15:08:46.854Z,39.00
2023-03-18T15:11:16.719Z,39.09
2023-03-18T15:13:45.234Z,39.34
2023-03-18T15:16:18.364Z,39.52
2023-03-18T15:18:45.679Z,39.82
2023-03-18T15:21:24.231Z,39.77
2023-03-18T15:23:55.145Z,40.57
2023-03-18T15:26:25.164Z,40.40
2023-03-18T15:29:01.524Z,40.39
2023-03-18T15:31:35.032Z,40.31
2023-03-18T15:34:31.927Z,40.61
2023-03-18T15:37:01.243Z,40.96
2023-03-18T15:39:29.902Z,40.63
2023-03-18T15:41:59.059Z,40.82
2023-03-18T15:44:36.716Z,41.17
2023-03-18T15:47:14.750Z,41.77
2023-03-18T15:49:56.051Z,41.92
2023-03-18T15:52:42.231Z,42.35
2023-03-18T15:55:30.347Z,42.35
2023-03-18T15:57:58.814Z,42.27
2023-03-18T16:00:25.960Z,42.20
2023-03-18T16:02:54.149Z,42.91
2023-03-18T16:05:26.435Z,42.68
2023-03-18T16:07:54.106Z,42.69
2023-03-18T16:10:24.001Z,43.09
2023-03-18T16:12:55.066Z,43.40
2023-03-18T16:15:24.460Z,43.55
2023-03-18T16:17:53.709Z,43.80
2023-03-18T16:20:23.583Z,43.81
2023-03-18T16:22:51.193Z,44.18
2023-03-18T16:25:19.104Z,44.37
2023-03-18T16:27:48.821Z,44.94
2023-03-18T16:30:26.091Z,45.15
2023-03-18T16:32:54.262Z,45.72
2023-03-18T16:35:24.699Z,46.16
2023-03-18T16:37:53.226Z,46.15
2023-03-18T16:40:25.097Z,46.46
2023-03-18T16:42:53.206Z,46.73
2023-03-18T16:45:24.458Z,47.09
2023-03-18T16:47:52.072Z,47.19
2023-03-18T16:50:24.633Z,47.59
2023-03-18T16:52:51.941Z,47.38
2023-03-18T16:55:19.496Z,47.58
2023-03-18T16:57:52.596Z,47.79
2023-03-18T17:00:24.691Z,48.02
2023-03-18T17:02:55.632Z,47.83
2023-03-18T17:05:22.819Z,48.04
2023-03-18T17:07:50.666Z,48.47
2023-03-18T17:10:22.269Z,48.32
2023-03-18T17:12:59.686Z,48.66
2023-03-18T17:15:33.077Z,48.38
2023-03-18T17:18:01.744Z,48.44
2023-03-18T17:20:32.533Z,48.81
2023-03-18T17:23:04.287Z,49.17
2023-03-18T17:25:31.959Z,49.12
2023-03-18T17:28:15.645Z,49.22
2023-03-18T17:30:42.525Z,49.55
2023-03-18T17:33:23.456Z,49.48
2023-03-18T17:35:51.268Z,49.76
2023-03-18T17:38:18.761Z,49.76
2023-03-18T17:40:48.223Z,50.03
2023-03-18T17:43:28.109Z,50.03
2023-03-18T17:45:58.913Z,50.26
2023-03-18T17:48:28.593Z,50.48
2023-03-18T17:50:58.692Z,50.47
2023-03-18T17:53:33.703Z,50.62
2023-03-18T17:56:02.494Z,50.89
2023-03-18T17:58:31.942Z,50.78
2023-03-18T18:01:08.605Z,51.11
2023-03-18T18:03:38.808Z,51.25
2023-03-18T18:06:07.198Z,51.09
2023-03-18T18:08:34.744Z,51.48
2023-03-18T18:11:17.839Z,51.50
2023-03-18T18:13:44.961Z,51.76
2023-03-18T18:16:12.987Z,51.69
2023-03-18T18:18:40.566Z,51.94
2023-03-18T18:21:15.152Z,52.28
2023-03-18T18:23:45.516Z,52.38
2023-03-18T18:26:17.555Z,52.66
2023-03-18T18:28:49.540Z,52.85
2023-03-18T18:31:17.887Z,53.03
2023-03-18T18:33:45.872Z,53.10
2023-03-18T18:36:14.321Z,53.05
2023-03-18T18:38:41.830Z,53.17
2023-03-18T18:41:08.886Z,53.21
2023-03-18T18:43:36.212Z,53.39
2023-03-18T18:46:03.645Z,53.60
2023-03-18T18:48:35.752Z,53.69
2023-03-18T18:51:04.834Z,53.74
2023-03-18T18:53:36.776Z,53.75
2023-03-18T18:56:23.104Z,53.89
2023-03-18T18:58:51.956Z,54.08
2023-03-18T19:01:19.747Z,54.20
2023-03-18T19:03:48.404Z,54.23
2023-03-18T19:06:29.244Z,54.27
2023-03-18T19:08:57.985Z,54.24
2023-03-18T19:11:26.037Z,54.29
2023-03-18T19:13:55.004Z,54.30
2023-03-18T19:16:29.709Z,54.54
2023-03-18T19:18:57.743Z,54.47
2023-03-18T19:21:25.383Z,54.58
2023-03-18T19:23:52.229Z,54.59
2023-03-18T19:26:21.371Z,54.66
2023-03-18T19:28:57.536Z,54.76
2023-03-18T19:31:30.821Z,54.83
2023-03-18T19:33:59.892Z,54.77
2023-03-18T19:36:39.881Z,54.93
2023-03-18T19:39:13.046Z,54.94
2023-03-18T19:41:40.023Z,54.94
2023-03-18T19:44:22.035Z,55.01
2023-03-18T19:46:51.560Z,55.21
2023-03-18T19:49:24.542Z,55.18
2023-03-18T19:51:52.107Z,55.14
2023-03-18T19:54:25.709Z,55.12
2023-03-18T19:56:54.094Z,55.19
2023-03-18T19:59:33.545Z,55.20
2023-03-18T20:02:17.215Z,55.46
2023-03-18T20:04:44.482Z,55.17
2023-03-18T20:07:11.595Z,55.09
2023-03-18T20:09:39.500Z,55.24
2023-03-18T20:12:09.473Z,55.24
2023-03-18T20:14:38.367Z,55.27
2023-03-18T20:17:24.895Z,55.40
2023-03-18T20:19:51.711Z,55.55
2023-03-18T20:22:23.824Z,55.60
2023-03-18T20:24:50.616Z,55.64
2023-03-18T20:27:18.177Z,55.82
2023-03-18T20:29:47.133Z,55.80
2023-03-18T20:32:14.394Z,55.69
2023-03-18T20:34:41.779Z,55.80
2023-03-18T20:37:34.110Z,55.66
2023-03-18T20:40:02.974Z,55.92
2023-03-18T20:42:29.952Z,56.04
2023-03-18T20:44:56.720Z,56.03
2023-03-18T20:47:23.770Z,56.02
2023-03-18T20:49:50.556Z,56.26
2023-03-18T20:52:26.037Z,56.20
2023-03-18T20:54:52.988Z,56.41
2023-03-18T20:57:20.191Z,56.37
2023-03-18T20:59:47.635Z,56.20
2023-03-18T21:02:31.700Z,56.56
2023-03-18T21:05:01.012Z,56.44
2023-03-18T21:07:29.009Z,56.45
2023-03-18T21:09:56.163Z,56.65
2023-03-18T21:12:23.252Z,56.65
2023-03-18T21:14:50.400Z,56.38
2023-03-18T21:17:26.031Z,56.66
2023-03-18T21:20:00.691Z,56.76
2023-03-18T21:22:33.435Z,57.00
2023-03-18T21:25:00.374Z,56.82
2023-03-18T21:27:28.119Z,57.09
2023-03-18T21:29:57.892Z,57.20
2023-03-18T21:32:27.433Z,57.30
2023-03-18T21:34:54.912Z,57.27
2023-03-18T21:37:24.229Z,57.21
2023-03-18T21:39:51.666Z,57.18
2023-03-18T21:42:19.624Z,57.18
2023-03-18T21:44:46.830Z,57.15
2023-03-18T21:47:16.012Z,57.05
2023-03-18T21:49:43.649Z,57.33
2023-03-18T21:52:22.501Z,57.38
2023-03-18T21:54:49.316Z,57.26
2023-03-18T21:57:18.556Z,57.29
2023-03-18T21:59:46.444Z,57.32
2023-03-18T22:02:28.044Z,57.55
2023-03-18T22:05:00.397Z,57.34
2023-03-18T22:07:29.366Z,57.41
2023-03-18T22:09:57.286Z,57.56
2023-03-18T22:12:30.350Z,57.88
2023-03-18T22:14:58.172Z,57.83
2023-03-18T22:17:28.531Z,57.95
2023-03-18T22:19:57.507Z,57.82
2023-03-18T22:22:27.481Z,57.82
2023-03-18T22:24:54.402Z,57.83
2023-03-18T22:27:29.434Z,57.96
2023-03-18T22:29:58.660Z,57.78
2023-03-18T22:32:42.915Z,57.90
2023-03-18T22:35:15.945Z,58.11
2023-03-18T22:37:43.599Z,58.30
2023-03-18T22:40:16.823Z,58.36
2023-03-18T22:42:44.342Z,58.35
2023-03-18T22:45:22.079Z,58.34
2023-03-18T22:47:50.462Z,58.29
2023-03-18T22:50:17.591Z,58.45
2023-03-18T22:52:45.264Z,58.46
2023-03-18T22:55:22.789Z,58.54
2023-03-18T22:57:50.434Z,58.67
2023-03-18T23:00:47.283Z,58.67
2023-03-18T23:03:24.048Z,58.55
2023-03-18T23:05:53.125Z,58.65
2023-03-18T23:08:21.350Z,58.55
2023-03-18T23:10:50.014Z,58.55
2023-03-18T23:13:26.320Z,58.67
2023-03-18T23:15:54.404Z,59.12
2023-03-18T23:18:21.687Z,58.90
2023-03-18T23:20:50.585Z,58.92
2023-03-18T23:23:18.791Z,59.01
2023-03-18T23:25:46.403Z,58.92
2023-03-18T23:28:14.777Z,58.87
2023-03-18T23:30:44.449Z,59.06
2023-03-18T23:33:11.797Z,58.97
2023-03-18T23:35:39.159Z,58.86
2023-03-18T23:38:06.728Z,59.01
2023-03-18T23:40:34.287Z,58.61
2023-03-18T23:43:03.008Z,58.97
2023-03-18T23:45:31.239Z,58.86
2023-03-18T23:47:58.403Z,58.73
2023-03-18T23:50:25.754Z,58.99
2023-03-18T23:52:53.381Z,59.01
2023-03-18T23:55:34.035Z,58.95
2023-03-18T23:58:02.087Z,59.23
